Time;durP1;ratioP1;P1;durP2;ratioP2;P2;SDS_P1;SDS_P2;PMS_P1;PMS_P2;Temp;Humidity;BMP_temperature;BMP_pressure;BME280_temperature;BME280_humidity;BME280_pressure;Samples;Min_cycle;Max_cycle;Signal;HPM_P1;HPM_P2
2023/08/15 00:00:37;;;;;;;8.23;5.47;;;;;;;;;;5091104;28;20164;-50
2023/08/15 00:03:04;;;;;;;8.40;5.13;;;;;;;;;;5092659;28;20219;-50
2023/08/15 00:05:30;;;;;;;7.53;5.33;;;;;;;;;;5092403;28;20172;-52
2023/08/15 00:07:56;;;;;;;10.27;5.43;;;;;;;;;;5090872;28;20294;-49
2023/08/15 00:10:22;;;;;;;7.97;4.57;;;;;;;;;;5091149;28;20215;-51
2023/08/15 00:12:48;;;;;;;8.33;5.17;;;;;;;;;;5091141;28;20287;-48
2023/08/15 00:15:14;;;;;;;8.63;5.33;;;;;;;;;;5091140;28;20275;-48
2023/08/15 00:17:40;;;;;;;9.80;5.67;;;;;;;;;;5093447;28;20547;-47
2023/08/15 00:20:07;;;;;;;9.20;5.33;;;;;;;;;;5093098;28;20257;-48
2023/08/15 00:22:33;;;;;;;9.23;5.07;;;;;;;;;;5094252;28;20515;-50
2023/08/15 00:24:59;;;;;;;7.13;4.90;;;;;;;;;;5093764;28;20187;-50
2023/08/15 00:27:26;;;;;;;7.10;5.00;;;;;;;;;;5093430;28;20176;-51
2023/08/15 00:29:52;;;;;;;10.73;5.17;;;;;;;;;;5093533;28;20179;-49
2023/08/15 00:32:19;;;;;;;7.43;5.07;;;;;;;;;;5092853;28;20173;-52
2023/08/15 00:34:45;;;;;;;10.63;5.57;;;;;;;;;;5092013;28;20179;-47
2023/08/15 00:37:11;;;;;;;9.57;5.77;;;;;;;;;;5092128;28;20168;-49
2023/08/15 00:39:37;;;;;;;9.10;5.80;;;;;;;;;;5093580;28;20160;-48
2023/08/15 00:42:03;;;;;;;8.67;5.77;;;;;;;;;;5091510;28;20458;-49
2023/08/15 00:44:29;;;;;;;5.90;4.70;;;;;;;;;;5093935;28;20758;-47
2023/08/15 00:46:55;;;;;;;10.57;4.87;;;;;;;;;;5093859;28;20178;-50
2023/08/15 00:52:25;;;;;;;12.70;5.73;;;;;;;;;;5092783;28;20248;-50
2023/08/15 00:54:52;;;;;;;7.87;5.07;;;;;;;;;;5093549;28;20207;-50
2023/08/15 00:57:18;;;;;;;8.20;5.07;;;;;;;;;;5094229;28;20187;-49
2023/08/15 00:59:44;;;;;;;7.47;5.47;;;;;;;;;;5093525;28;20180;-49
2023/08/15 01:02:11;;;;;;;9.27;5.00;;;;;;;;;;5093569;28;20179;-52
2023/08/15 01:04:38;;;;;;;6.10;5.00;;;;;;;;;;5094124;28;20179;-52
2023/08/15 01:07:04;;;;;;;7.50;5.00;;;;;;;;;;5094242;28;20551;-52
2023/08/15 01:09:32;;;;;;;10.47;4.77;;;;;;;;;;5094889;28;20597;-48
2023/08/15 01:12:17;;;;;;;6.50;4.70;;;;;;;;;;5094166;28;20454;-48
2023/08/15 01:14:51;;;;;;;7.57;4.80;;;;;;;;;;5094137;28;20291;-47
2023/08/15 01:17:20;;;;;;;8.47;4.43;;;;;;;;;;5094179;28;20175;-47
2023/08/15 01:20:15;;;;;;;5.37;4.30;;;;;;;;;;5094171;28;20565;-49
2023/08/15 01:22:43;;;;;;;7.37;4.00;;;;;;;;;;5093587;28;20196;-49
2023/08/15 01:25:10;;;;;;;11.00;5.40;;;;;;;;;;5094719;28;20546;-49
2023/08/15 01:27:36;;;;;;;7.73;4.33;;;;;;;;;;5094396;28;20220;-48
2023/08/15 01:30:02;;;;;;;10.47;4.60;;;;;;;;;;5093850;28;20168;-48
2023/08/15 01:32:46;;;;;;;8.20;4.27;;;;;;;;;;5093634;28;20275;-47
2023/08/15 01:35:22;;;;;;;9.50;5.30;;;;;;;;;;5094035;28;20202;-52
2023/08/15 01:37:51;;;;;;;6.27;4.43;;;;;;;;;;5093725;28;20195;-48
2023/08/15 01:40:17;;;;;;;5.53;4.10;;;;;;;;;;5093091;28;20211;-49
2023/08/15 01:42:45;;;;;;;8.90;4.80;;;;;;;;;;5093589;28;20222;-47
2023/08/15 01:45:11;;;;;;;7.90;4.40;;;;;;;;;;5093101;28;20178;-45
2023/08/15 01:47:38;;;;;;;5.77;4.40;;;;;;;;;;5093320;28;20275;-48
2023/08/15 01:50:04;;;;;;;10.67;4.83;;;;;;;;;;5092879;28;20168;-45
2023/08/15 01:52:30;;;;;;;9.80;4.87;;;;;;;;;;5095795;28;20168;-50
2023/08/15 01:54:56;;;;;;;9.27;4.80;;;;;;;;;;5095860;28;20187;-49
2023/08/15 01:57:22;;;;;;;8.53;4.70;;;;;;;;;;5096945;28;20172;-45
2023/08/15 01:59:48;;;;;;;10.23;5.33;;;;;;;;;;5095886;28;20274;-50
2023/08/15 02:02:14;;;;;;;7.13;4.97;;;;;;;;;;5096306;28;20214;-52
2023/08/15 02:04:40;;;;;;;9.80;4.83;;;;;;;;;;5095987;28;20277;-50
2023/08/15 02:07:06;;;;;;;9.47;5.27;;;;;;;;;;5094916;28;20164;-51
2023/08/15 02:09:32;;;;;;;6.63;5.13;;;;;;;;;;5093632;28;20213;-49
2023/08/15 02:11:58;;;;;;;5.57;4.43;;;;;;;;;;5095444;28;20172;-53
2023/08/15 02:14:25;;;;;;;9.07;5.03;;;;;;;;;;5094764;28;20244;-47
2023/08/15 02:16:51;;;;;;;7.33;4.87;;;;;;;;;;5093405;28;20172;-49
2023/08/15 02:19:17;;;;;;;8.47;5.80;;;;;;;;;;5093703;28;20175;-49
2023/08/15 02:21:43;;;;;;;7.90;4.63;;;;;;;;;;5094500;28;20351;-48
2023/08/15 02:24:09;;;;;;;8.00;4.80;;;;;;;;;;5094135;28;20207;-46
2023/08/15 02:26:35;;;;;;;8.37;4.63;;;;;;;;;;5093511;28;20172;-50
2023/08/15 02:29:02;;;;;;;9.57;4.87;;;;;;;;;;5092944;28;20228;-45
2023/08/15 02:31:29;;;;;;;7.97;5.00;;;;;;;;;;5093276;28;20171;-45
2023/08/15 02:33:55;;;;;;;8.70;4.57;;;;;;;;;;5095154;28;20548;-47
2023/08/15 02:36:21;;;;;;;6.43;4.60;;;;;;;;;;5094396;28;20626;-46
2023/08/15 02:38:47;;;;;;;9.03;4.43;;;;;;;;;;5095177;28;20595;-48
2023/08/15 02:41:13;;;;;;;5.60;4.60;;;;;;;;;;5096189;28;20268;-49
2023/08/15 02:43:39;;;;;;;5.50;4.53;;;;;;;;;;5095924;28;20539;-48
2023/08/15 02:46:06;;;;;;;5.97;4.57;;;;;;;;;;5095477;28;20448;-48
2023/08/15 02:48:32;;;;;;;5.80;5.00;;;;;;;;;;5095380;28;20176;-51
2023/08/15 02:50:57;;;;;;;10.30;5.30;;;;;;;;;;5094968;28;20168;-48
2023/08/15 02:53:23;;;;;;;10.40;5.37;;;;;;;;;;5094255;28;20176;-50
2023/08/15 02:55:50;;;;;;;6.23;4.80;;;;;;;;;;5095934;28;20172;-50
2023/08/15 02:58:16;;;;;;;7.40;4.77;;;;;;;;;;5095668;28;20245;-49
2023/08/15 03:00:43;;;;;;;7.00;4.80;;;;;;;;;;5095821;28;20176;-53
2023/08/15 03:03:09;;;;;;;6.70;4.90;;;;;;;;;;5094706;28;20215;-49
2023/08/15 03:05:39;;;;;;;10.00;5.27;;;;;;;;;;5094860;28;20173;-47
2023/08/15 03:08:05;;;;;;;7.17;4.47;;;;;;;;;;5094945;28;20172;-50
2023/08/15 03:10:32;;;;;;;7.23;4.63;;;;;;;;;;5095348;28;20738;-50
2023/08/15 03:12:59;;;;;;;8.10;5.40;;;;;;;;;;5095446;28;20262;-51
2023/08/15 03:15:25;;;;;;;6.33;5.07;;;;;;;;;;5095277;28;20524;-48
2023/08/15 03:17:51;;;;;;;8.03;5.30;;;;;;;;;;5093966;28;20455;-47
2023/08/15 03:20:17;;;;;;;9.63;5.60;;;;;;;;;;5095142;28;20168;-48
2023/08/15 03:22:44;;;;;;;8.30;6.33;;;;;;;;;;5093736;28;20202;-48
2023/08/15 03:25:10;;;;;;;8.60;5.17;;;;;;;;;;5093637;28;20179;-49
2023/08/15 03:30:39;;;;;;;8.70;5.90;;;;;;;;;;5094610;28;20186;-50
2023/08/15 03:33:05;;;;;;;9.60;6.43;;;;;;;;;;5092100;28;20172;-50
2023/08/15 03:35:31;;;;;;;9.80;5.67;;;;;;;;;;5091814;28;20256;-48
2023/08/15 03:37:57;;;;;;;15.70;6.40;;;;;;;;;;5091616;28;20176;-50
2023/08/15 03:40:23;;;;;;;10.80;5.93;;;;;;;;;;5091927;28;20176;-48
2023/08/15 03:42:49;;;;;;;12.90;6.33;;;;;;;;;;5094225;28;20208;-51
2023/08/15 03:45:15;;;;;;;7.47;6.20;;;;;;;;;;5095612;28;20222;-51
2023/08/15 03:47:41;;;;;;;8.20;6.03;;;;;;;;;;5095130;28;20168;-48
2023/08/15 03:50:08;;;;;;;8.40;6.20;;;;;;;;;;5093662;28;20354;-48
2023/08/15 03:52:35;;;;;;;9.30;6.07;;;;;;;;;;5091627;28;20539;-50
2023/08/15 03:55:02;;;;;;;10.00;6.17;;;;;;;;;;5089294;28;20182;-48
2023/08/15 03:57:28;;;;;;;13.20;6.23;;;;;;;;;;5089671;28;20590;-48
2023/08/15 03:59:54;;;;;;;12.93;6.63;;;;;;;;;;5089687;28;20176;-47
2023/08/15 04:02:20;;;;;;;8.30;6.30;;;;;;;;;;5089054;28;20172;-48
2023/08/15 04:04:46;;;;;;;7.23;5.83;;;;;;;;;;5088549;28;20168;-48
2023/08/15 04:07:12;;;;;;;8.43;6.43;;;;;;;;;;5090668;28;20168;-50
2023/08/15 04:09:38;;;;;;;8.60;6.00;;;;;;;;;;5093533;28;20615;-48
2023/08/15 04:12:04;;;;;;;10.30;5.90;;;;;;;;;;5094012;28;20567;-48
2023/08/15 04:14:30;;;;;;;6.53;5.43;;;;;;;;;;5092924;28;20218;-48
2023/08/15 04:16:56;;;;;;;11.43;5.80;;;;;;;;;;5093189;28;20173;-50
2023/08/15 04:19:22;;;;;;;6.70;6.00;;;;;;;;;;5091604;28;20191;-48
2023/08/15 04:21:48;;;;;;;10.27;6.10;;;;;;;;;;5092304;28;20399;-47
2023/08/15 04:24:14;;;;;;;7.77;5.60;;;;;;;;;;5092816;28;20239;-50
2023/08/15 04:26:40;;;;;;;9.83;6.20;;;;;;;;;;5091352;28;20528;-48
2023/08/15 04:29:06;;;;;;;8.50;5.77;;;;;;;;;;5090757;28;20243;-48
2023/08/15 04:31:34;;;;;;;10.33;6.00;;;;;;;;;;5091014;28;20178;-48
2023/08/15 04:34:00;;;;;;;7.10;5.93;;;;;;;;;;5089673;28;20236;-48
2023/08/15 04:36:26;;;;;;;9.13;5.80;;;;;;;;;;5090040;28;20562;-48
2023/08/15 04:38:52;;;;;;;8.93;6.30;;;;;;;;;;5089114;28;20237;-47
2023/08/15 04:41:18;;;;;;;10.03;6.47;;;;;;;;;;5090032;28;20570;-50
2023/08/15 04:43:44;;;;;;;11.70;6.03;;;;;;;;;;5090336;28;20207;-51
2023/08/15 04:46:10;;;;;;;10.10;6.67;;;;;;;;;;5091686;28;20520;-49
2023/08/15 04:48:36;;;;;;;9.37;5.87;;;;;;;;;;5090208;28;20268;-48
2023/08/15 04:51:02;;;;;;;8.83;6.33;;;;;;;;;;5090317;28;20544;-48
2023/08/15 04:53:28;;;;;;;10.13;6.50;;;;;;;;;;5090885;28;20168;-48
2023/08/15 04:55:54;;;;;;;10.43;6.33;;;;;;;;;;5091579;28;20215;-48
2023/08/15 04:58:20;;;;;;;12.53;7.40;;;;;;;;;;5090656;28;20436;-53
2023/08/15 05:00:47;;;;;;;11.37;7.90;;;;;;;;;;5091692;28;20190;-50
2023/08/15 05:03:14;;;;;;;12.07;6.83;;;;;;;;;;5091330;28;20210;-50
2023/08/15 05:05:40;;;;;;;9.13;6.97;;;;;;;;;;5092660;28;20532;-47
2023/08/15 05:08:06;;;;;;;11.90;6.67;;;;;;;;;;5092341;28;20168;-48
2023/08/15 05:10:32;;;;;;;15.00;6.97;;;;;;;;;;5092383;28;20172;-51
2023/08/15 05:12:59;;;;;;;11.13;7.07;;;;;;;;;;5092154;28;20188;-49
2023/08/15 05:15:25;;;;;;;9.90;7.07;;;;;;;;;;5092611;28;20180;-50
2023/08/15 05:17:52;;;;;;;7.63;6.10;;;;;;;;;;5093198;28;20278;-50
2023/08/15 05:20:18;;;;;;;8.73;6.53;;;;;;;;;;5090833;28;20184;-48
2023/08/15 05:22:44;;;;;;;10.93;6.37;;;;;;;;;;5091236;28;20625;-50
2023/08/15 05:25:10;;;;;;;9.37;6.53;;;;;;;;;;5091243;28;20283;-48
2023/08/15 05:27:36;;;;;;;8.80;6.60;;;;;;;;;;5092774;28;20266;-48
2023/08/15 05:30:03;;;;;;;12.73;6.10;;;;;;;;;;5095738;28;20204;-50
2023/08/15 05:32:29;;;;;;;8.33;6.43;;;;;;;;;;5095385;28;20171;-48
2023/08/15 05:34:55;;;;;;;11.07;6.03;;;;;;;;;;5094484;28;20191;-49
2023/08/15 05:37:21;;;;;;;10.90;6.73;;;;;;;;;;5094545;28;20175;-51
2023/08/15 05:39:47;;;;;;;9.97;6.63;;;;;;;;;;5095765;28;20187;-47
2023/08/15 05:42:17;;;;;;;10.63;6.77;;;;;;;;;;5095733;28;20176;-52
2023/08/15 05:44:45;;;;;;;14.67;7.17;;;;;;;;;;5096181;28;20179;-47
2023/08/15 05:47:12;;;;;;;8.40;5.80;;;;;;;;;;5095879;28;20508;-50
2023/08/15 05:49:38;;;;;;;10.30;6.43;;;;;;;;;;5094918;28;20539;-48
2023/08/15 05:52:04;;;;;;;7.63;6.30;;;;;;;;;;5095116;28;20160;-51
2023/08/15 05:54:30;;;;;;;8.13;6.47;;;;;;;;;;5094336;28;20183;-49
2023/08/15 05:56:56;;;;;;;8.97;6.73;;;;;;;;;;5093405;28;20172;-49
2023/08/15 05:59:22;;;;;;;14.23;6.70;;;;;;;;;;5091882;28;20183;-47
2023/08/15 06:01:48;;;;;;;9.67;6.90;;;;;;;;;;5090893;28;20172;-47
2023/08/15 06:04:14;;;;;;;8.10;6.10;;;;;;;;;;5091074;28;20218;-48
2023/08/15 06:06:40;;;;;;;7.07;6.00;;;;;;;;;;5091854;28;20243;-47
2023/08/15 06:09:06;;;;;;;11.37;6.43;;;;;;;;;;5090458;28;20573;-47
2023/08/15 06:11:33;;;;;;;10.07;6.00;;;;;;;;;;5090528;28;20180;-48
2023/08/15 06:13:59;;;;;;;6.17;5.53;;;;;;;;;;5090856;28;20199;-50
2023/08/15 06:16:25;;;;;;;9.47;5.63;;;;;;;;;;5092397;28;20203;-52
2023/08/15 06:18:51;;;;;;;7.40;5.77;;;;;;;;;;5091393;28;20171;-50
2023/08/15 06:21:17;;;;;;;9.33;6.00;;;;;;;;;;5092132;28;20172;-50
2023/08/15 06:23:43;;;;;;;10.53;5.67;;;;;;;;;;5092767;28;20533;-51
2023/08/15 06:26:09;;;;;;;10.23;5.87;;;;;;;;;;5092433;28;20400;-50
2023/08/15 06:28:35;;;;;;;8.57;5.73;;;;;;;;;;5091470;28;20373;-51
2023/08/15 06:31:01;;;;;;;9.80;6.33;;;;;;;;;;5092703;28;20160;-47
2023/08/15 06:33:27;;;;;;;11.37;6.50;;;;;;;;;;5092678;28;20184;-47
2023/08/15 06:35:53;;;;;;;9.73;6.70;;;;;;;;;;5092860;28;20583;-50
2023/08/15 06:38:19;;;;;;;8.97;5.77;;;;;;;;;;5089824;28;20191;-48
2023/08/15 06:40:45;;;;;;;7.47;5.97;;;;;;;;;;5090289;28;20559;-47
2023/08/15 06:43:11;;;;;;;12.80;6.50;;;;;;;;;;5090975;28;20451;-50
2023/08/15 06:45:37;;;;;;;10.50;6.20;;;;;;;;;;5090470;28;20264;-50
2023/08/15 06:48:05;;;;;;;8.80;5.43;;;;;;;;;;5089885;28;20539;-47
2023/08/15 06:50:31;;;;;;;7.43;5.20;;;;;;;;;;5091337;28;20254;-49
2023/08/15 06:52:57;;;;;;;9.47;5.90;;;;;;;;;;5089704;28;20199;-52
2023/08/15 06:55:23;;;;;;;9.70;5.30;;;;;;;;;;5089459;28;20462;-52
2023/08/15 06:57:49;;;;;;;13.23;5.93;;;;;;;;;;5087464;28;20180;-47
2023/08/15 07:00:17;;;;;;;5.87;5.17;;;;;;;;;;5087608;28;20418;-48
2023/08/15 07:02:43;;;;;;;9.07;5.73;;;;;;;;;;5088156;28;20203;-49
2023/08/15 07:05:10;;;;;;;8.47;5.47;;;;;;;;;;5087213;28;20176;-51
2023/08/15 07:07:37;;;;;;;14.17;5.80;;;;;;;;;;5088420;28;20365;-49
2023/08/15 07:10:06;;;;;;;10.70;6.07;;;;;;;;;;5089113;28;20164;-48
2023/08/15 07:12:32;;;;;;;9.77;6.33;;;;;;;;;;5089700;28;20180;-50
2023/08/15 07:14:58;;;;;;;7.87;5.73;;;;;;;;;;5089029;28;20164;-50
2023/08/15 07:17:24;;;;;;;7.90;5.40;;;;;;;;;;5089144;28;20456;-50
2023/08/15 07:19:50;;;;;;;9.30;5.93;;;;;;;;;;5088179;28;20180;-52
2023/08/15 07:22:16;;;;;;;9.00;5.37;;;;;;;;;;5085602;28;20164;-49
2023/08/15 07:24:42;;;;;;;6.97;5.45;;;;;;;;;;5085888;28;20591;-50
2023/08/15 07:27:08;;;;;;;7.45;5.25;;;;;;;;;;5088559;28;20506;-50
2023/08/15 07:29:34;;;;;;;8.07;5.27;;;;;;;;;;5088031;28;20195;-50
2023/08/15 07:32:00;;;;;;;9.43;5.03;;;;;;;;;;5087426;28;20161;-48
2023/08/15 07:34:26;;;;;;;7.07;5.30;;;;;;;;;;5087516;28;20212;-48
2023/08/15 07:36:52;;;;;;;9.98;5.70;;;;;;;;;;5087564;28;20428;-47
2023/08/15 07:39:18;;;;;;;9.80;4.87;;;;;;;;;;5086893;28;20444;-48
2023/08/15 07:41:44;;;;;;;7.33;5.70;;;;;;;;;;5087535;28;20544;-50
2023/08/15 07:44:10;;;;;;;8.10;5.20;;;;;;;;;;5086602;28;20532;-48
2023/08/15 07:46:37;;;;;;;6.20;5.00;;;;;;;;;;5087275;28;20505;-50
2023/08/15 07:49:02;;;;;;;5.90;4.83;;;;;;;;;;5087161;28;20164;-47
2023/08/15 07:51:28;;;;;;;7.25;4.72;;;;;;;;;;5085742;28;20233;-52
2023/08/15 07:53:54;;;;;;;9.33;5.53;;;;;;;;;;5087132;28;20568;-48
2023/08/15 07:56:20;;;;;;;7.00;5.03;;;;;;;;;;5087895;28;20544;-47
2023/08/15 07:58:46;;;;;;;13.03;5.20;;;;;;;;;;5087547;28;20458;-49
2023/08/15 08:01:12;;;;;;;9.47;5.30;;;;;;;;;;5085443;28;20168;-48
2023/08/15 08:03:42;;;;;;;10.03;5.13;;;;;;;;;;5087834;28;20227;-49
2023/08/15 08:06:09;;;;;;;7.80;5.40;;;;;;;;;;5087762;28;20257;-48
2023/08/15 08:08:35;;;;;;;7.40;5.17;;;;;;;;;;5086897;28;20327;-48
2023/08/15 08:11:01;;;;;;;6.87;4.97;;;;;;;;;;5089099;28;20527;-50
2023/08/15 08:13:27;;;;;;;6.20;5.37;;;;;;;;;;5089173;28;20643;-48
2023/08/15 08:15:53;;;;;;;9.63;5.43;;;;;;;;;;5087380;28;20687;-48
2023/08/15 08:18:19;;;;;;;8.17;5.97;;;;;;;;;;5088014;28;20638;-51
2023/08/15 08:20:45;;;;;;;6.97;5.20;;;;;;;;;;5086087;28;20180;-47
2023/08/15 08:23:13;;;;;;;9.30;6.10;;;;;;;;;;5085649;28;20227;-49
2023/08/15 08:25:39;;;;;;;5.80;5.13;;;;;;;;;;5085032;28;20206;-48
2023/08/15 08:28:05;;;;;;;9.60;5.53;;;;;;;;;;5086068;28;20335;-48
2023/08/15 08:30:34;;;;;;;11.80;6.43;;;;;;;;;;5088462;28;20164;-47
2023/08/15 08:33:00;;;;;;;8.90;6.13;;;;;;;;;;5088703;28;20237;-51
2023/08/15 08:35:26;;;;;;;10.40;5.67;;;;;;;;;;5089377;28;20258;-47
2023/08/15 08:37:52;;;;;;;10.97;5.97;;;;;;;;;;5091409;28;20172;-49
2023/08/15 08:40:19;;;;;;;7.03;5.63;;;;;;;;;;5088660;28;20182;-48
2023/08/15 08:42:45;;;;;;;8.03;5.83;;;;;;;;;;5086839;28;20548;-48
2023/08/15 08:45:12;;;;;;;7.00;5.27;;;;;;;;;;5086714;28;20435;-50
2023/08/15 08:47:41;;;;;;;12.43;5.60;;;;;;;;;;5088770;28;20172;-49
2023/08/15 08:50:11;;;;;;;6.60;4.70;;;;;;;;;;5086203;28;20218;-48
2023/08/15 08:52:41;;;;;;;7.73;5.10;;;;;;;;;;5086313;28;20517;-47
2023/08/15 08:55:11;;;;;;;10.33;6.17;;;;;;;;;;5086514;28;20168;-48
2023/08/15 08:57:37;;;;;;;10.57;6.60;;;;;;;;;;5089625;28;20168;-51
2023/08/15 09:00:11;;;;;;;9.53;6.23;;;;;;;;;;5087567;28;20202;-50
2023/08/15 09:02:38;;;;;;;9.93;5.97;;;;;;;;;;5089588;28;20160;-47
2023/08/15 09:05:07;;;;;;;7.80;5.90;;;;;;;;;;5092639;28;20172;-47
2023/08/15 09:07:34;;;;;;;7.20;5.67;;;;;;;;;;5092726;28;20183;-52
2023/08/15 09:10:00;;;;;;;9.60;6.10;;;;;;;;;;5094026;28;20631;-49
2023/08/15 09:12:36;;;;;;;11.43;6.70;;;;;;;;;;5091720;28;20168;-47
2023/08/15 09:15:09;;;;;;;8.97;4.90;;;;;;;;;;5091025;28;20638;-47
2023/08/15 09:17:36;;;;;;;6.87;5.73;;;;;;;;;;5088087;28;20228;-49
2023/08/15 09:20:13;;;;;;;10.20;6.07;;;;;;;;;;5088518;28;20175;-48
2023/08/15 09:22:41;;;;;;;8.60;5.77;;;;;;;;;;5089072;28;20168;-47
2023/08/15 09:25:07;;;;;;;7.30;5.33;;;;;;;;;;5086767;28;20436;-47
2023/08/15 09:27:34;;;;;;;8.77;6.33;;;;;;;;;;5086184;28;20295;-47
2023/08/15 09:30:07;;;;;;;6.90;5.40;;;;;;;;;;5088741;28;20688;-49
2023/08/15 09:32:33;;;;;;;9.43;5.60;;;;;;;;;;5090405;28;20528;-48
2023/08/15 09:34:59;;;;;;;8.37;5.90;;;;;;;;;;5089023;28;20183;-48
2023/08/15 09:37:26;;;;;;;12.60;5.63;;;;;;;;;;5089389;28;20321;-47
2023/08/15 09:39:52;;;;;;;9.97;5.33;;;;;;;;;;5089938;28;20540;-47
2023/08/15 09:42:21;;;;;;;7.93;5.60;;;;;;;;;;5092271;28;20258;-48
2023/08/15 09:44:47;;;;;;;7.33;4.63;;;;;;;;;;5092824;28;20208;-49
2023/08/15 09:47:13;;;;;;;6.03;4.77;;;;;;;;;;5091226;28;20168;-47
2023/08/15 09:49:39;;;;;;;8.87;5.00;;;;;;;;;;5091046;28;20184;-47
2023/08/15 09:52:05;;;;;;;8.37;5.10;;;;;;;;;;5091618;28;20311;-47
2023/08/15 09:54:32;;;;;;;9.73;5.13;;;;;;;;;;5089966;28;20468;-47
2023/08/15 09:56:58;;;;;;;7.10;5.10;;;;;;;;;;5088639;28;20176;-48
2023/08/15 09:59:24;;;;;;;10.33;5.33;;;;;;;;;;5088851;28;20203;-47
2023/08/15 10:01:52;;;;;;;10.15;4.88;;;;;;;;;;5087846;28;20575;-47
2023/08/15 10:04:19;;;;;;;7.87;4.63;;;;;;;;;;5085475;28;20204;-54
2023/08/15 10:06:46;;;;;;;11.00;4.90;;;;;;;;;;5085421;28;20171;-48
2023/08/15 10:09:14;;;;;;;11.73;4.53;;;;;;;;;;5083788;28;20199;-48
2023/08/15 10:11:40;;;;;;;8.17;3.87;;;;;;;;;;5085896;28;20172;-49
2023/08/15 10:14:08;;;;;;;7.77;4.43;;;;;;;;;;5085331;28;20276;-48
2023/08/15 10:16:35;;;;;;;7.60;3.80;;;;;;;;;;5084474;28;20244;-49
2023/08/15 10:19:02;;;;;;;4.33;3.93;;;;;;;;;;5083969;28;20172;-47
2023/08/15 10:21:46;;;;;;;9.30;4.83;;;;;;;;;;5085524;28;20516;-48
2023/08/15 10:24:12;;;;;;;7.10;4.53;;;;;;;;;;5086374;28;20207;-48
2023/08/15 10:26:38;;;;;;;7.30;4.73;;;;;;;;;;5086777;28;20172;-47
2023/08/15 10:29:04;;;;;;;7.97;4.17;;;;;;;;;;5088138;28;20273;-47
2023/08/15 10:31:35;;;;;;;4.50;3.50;;;;;;;;;;5090246;28;20203;-47
2023/08/15 10:34:02;;;;;;;5.75;4.20;;;;;;;;;;5090561;28;20169;-47
2023/08/15 10:36:29;;;;;;;7.53;4.30;;;;;;;;;;5090504;28;20522;-48
2023/08/15 10:38:55;;;;;;;7.45;4.13;;;;;;;;;;5089530;28;20179;-49
2023/08/15 10:41:22;;;;;;;7.45;3.88;;;;;;;;;;5087803;28;20214;-49
2023/08/15 10:43:49;;;;;;;6.47;4.40;;;;;;;;;;5087362;28;20377;-46
2023/08/15 10:46:17;;;;;;;7.20;4.03;;;;;;;;;;5087914;28;20238;-49
2023/08/15 10:48:49;;;;;;;5.85;3.78;;;;;;;;;;5084982;28;20526;-46
2023/08/15 10:51:23;;;;;;;5.28;3.75;;;;;;;;;;5083885;28;20190;-46
2023/08/15 10:53:53;;;;;;;7.22;4.00;;;;;;;;;;5085058;28;20431;-47
2023/08/15 10:56:19;;;;;;;4.78;3.60;;;;;;;;;;5083094;28;20180;-48
2023/08/15 10:58:49;;;;;;;6.30;4.30;;;;;;;;;;5085293;28;20575;-49
2023/08/15 11:01:19;;;;;;;5.20;3.80;;;;;;;;;;5085360;28;20168;-50
2023/08/15 11:03:46;;;;;;;6.75;4.43;;;;;;;;;;5087054;28;20295;-51
2023/08/15 11:06:13;;;;;;;7.28;4.65;;;;;;;;;;5087445;28;20168;-49
2023/08/15 11:08:51;;;;;;;6.10;4.78;;;;;;;;;;5088500;28;20164;-46
2023/08/15 11:11:17;;;;;;;6.90;4.45;;;;;;;;;;5087273;28;20260;-47
2023/08/15 11:13:47;;;;;;;5.72;4.30;;;;;;;;;;5088048;28;20180;-46
2023/08/15 11:16:17;;;;;;;6.20;4.60;;;;;;;;;;5085738;28;20568;-49
2023/08/15 11:18:43;;;;;;;7.75;4.40;;;;;;;;;;5087885;28;20411;-50
2023/08/15 11:21:11;;;;;;;5.22;4.30;;;;;;;;;;5088160;28;20198;-47
2023/08/15 11:23:37;;;;;;;7.43;4.85;;;;;;;;;;5087672;28;20490;-50
2023/08/15 11:26:04;;;;;;;6.93;5.28;;;;;;;;;;5086340;28;20182;-48
2023/08/15 11:28:31;;;;;;;6.78;4.65;;;;;;;;;;5087412;28;20232;-48
2023/08/15 11:30:58;;;;;;;7.35;3.72;;;;;;;;;;5086474;28;20171;-46
2023/08/15 11:33:24;;;;;;;5.20;4.40;;;;;;;;;;5083318;28;20264;-47
2023/08/15 11:35:50;;;;;;;7.43;4.90;;;;;;;;;;5083085;28;20195;-47
2023/08/15 11:38:21;;;;;;;6.53;4.50;;;;;;;;;;5081428;28;20709;-49
2023/08/15 11:40:47;;;;;;;4.43;3.95;;;;;;;;;;5084552;28;20175;-51
2023/08/15 11:43:13;;;;;;;6.22;4.32;;;;;;;;;;5085096;28;20287;-46
2023/08/15 11:45:43;;;;;;;7.13;3.88;;;;;;;;;;5084160;28;20301;-48
2023/08/15 11:48:09;;;;;;;6.93;4.03;;;;;;;;;;5084690;28;20690;-48
2023/08/15 11:50:35;;;;;;;5.50;4.43;;;;;;;;;;5085729;28;20214;-49
2023/08/15 11:53:08;;;;;;;4.15;3.75;;;;;;;;;;5083579;28;20218;-48
2023/08/15 11:55:35;;;;;;;4.93;4.43;;;;;;;;;;5083201;28;20172;-47
2023/08/15 11:58:02;;;;;;;4.32;3.97;;;;;;;;;;5083651;28;20316;-47
2023/08/15 12:00:28;;;;;;;6.00;4.50;;;;;;;;;;5085340;28;20218;-51
2023/08/15 12:02:55;;;;;;;6.97;4.00;;;;;;;;;;5084156;28;20222;-47
2023/08/15 12:05:21;;;;;;;6.03;4.35;;;;;;;;;;5082627;28;20219;-51
2023/08/15 12:07:47;;;;;;;8.68;4.70;;;;;;;;;;5083103;28;20228;-50
2023/08/15 12:10:15;;;;;;;8.73;4.85;;;;;;;;;;5083329;28;20536;-48
2023/08/15 12:12:42;;;;;;;4.78;4.28;;;;;;;;;;5082103;28;20168;-49
2023/08/15 12:15:09;;;;;;;10.32;6.57;;;;;;;;;;5081577;28;20176;-46
2023/08/15 12:17:36;;;;;;;9.43;6.65;;;;;;;;;;5080807;28;20175;-49
2023/08/15 12:20:03;;;;;;;7.95;7.05;;;;;;;;;;5083656;28;20264;-46
2023/08/15 12:22:29;;;;;;;8.48;6.22;;;;;;;;;;5082011;28;20308;-47
2023/08/15 12:24:56;;;;;;;11.00;7.95;;;;;;;;;;5081975;28;20443;-50
2023/08/15 12:27:22;;;;;;;8.95;7.38;;;;;;;;;;5083214;28;20770;-47
2023/08/15 12:29:48;;;;;;;10.02;7.10;;;;;;;;;;5081499;28;20570;-50
2023/08/15 12:32:14;;;;;;;8.82;6.45;;;;;;;;;;5081365;28;20215;-47
2023/08/15 12:34:40;;;;;;;8.60;6.50;;;;;;;;;;5081269;28;20165;-47
2023/08/15 12:37:06;;;;;;;10.15;6.45;;;;;;;;;;5079327;28;20545;-48
2023/08/15 12:39:32;;;;;;;9.38;6.60;;;;;;;;;;5080770;28;20436;-49
2023/08/15 12:41:59;;;;;;;8.65;6.30;;;;;;;;;;5082110;28;20203;-47
2023/08/15 12:44:25;;;;;;;10.57;6.78;;;;;;;;;;5082156;28;20586;-48
2023/08/15 12:46:51;;;;;;;7.13;5.82;;;;;;;;;;5081981;28;20422;-48
2023/08/15 12:49:17;;;;;;;8.63;6.30;;;;;;;;;;5080913;28;20585;-50
2023/08/15 12:51:43;;;;;;;8.45;6.22;;;;;;;;;;5082906;28;20160;-49
2023/08/15 12:54:09;;;;;;;9.30;6.72;;;;;;;;;;5084155;28;20414;-47
2023/08/15 12:56:35;;;;;;;6.22;5.55;;;;;;;;;;5086473;28;20467;-49
2023/08/15 12:59:01;;;;;;;6.45;5.25;;;;;;;;;;5085205;28;20563;-48
2023/08/15 13:01:27;;;;;;;10.23;5.15;;;;;;;;;;5087334;28;20287;-54
2023/08/15 13:03:54;;;;;;;7.55;4.95;;;;;;;;;;5087219;28;20234;-47
2023/08/15 13:06:20;;;;;;;7.05;4.78;;;;;;;;;;5087185;28;20171;-49
2023/08/15 13:08:46;;;;;;;5.43;4.57;;;;;;;;;;5085645;28;20176;-48
2023/08/15 13:11:13;;;;;;;8.65;5.30;;;;;;;;;;5084370;28;20168;-51
2023/08/15 13:13:39;;;;;;;5.63;4.22;;;;;;;;;;5086544;28;20187;-48
2023/08/15 13:16:05;;;;;;;7.03;4.35;;;;;;;;;;5083582;28;20532;-49
2023/08/15 13:18:31;;;;;;;5.75;4.15;;;;;;;;;;5086823;28;20337;-48
2023/08/15 13:20:57;;;;;;;6.70;4.43;;;;;;;;;;5086583;28;20469;-51
2023/08/15 13:23:23;;;;;;;4.90;3.60;;;;;;;;;;5086021;28;20544;-50
2023/08/15 13:25:49;;;;;;;7.10;3.80;;;;;;;;;;5086596;28;20182;-49
2023/08/15 13:28:15;;;;;;;9.10;4.65;;;;;;;;;;5087691;28;20306;-50
2023/08/15 13:30:42;;;;;;;10.40;4.90;;;;;;;;;;5085247;28;20165;-50
2023/08/15 13:33:08;;;;;;;7.28;4.20;;;;;;;;;;5085097;28;20176;-52
2023/08/15 13:35:34;;;;;;;7.10;4.25;;;;;;;;;;5085936;28;20315;-50
2023/08/15 13:38:01;;;;;;;5.30;3.33;;;;;;;;;;5084927;28;20184;-49
2023/08/15 13:40:26;;;;;;;10.80;3.97;;;;;;;;;;5085438;28;20420;-53
2023/08/15 13:42:52;;;;;;;6.28;3.67;;;;;;;;;;5085792;28;20168;-50
2023/08/15 13:45:19;;;;;;;6.90;4.10;;;;;;;;;;5085620;28;20320;-52
2023/08/15 13:47:44;;;;;;;4.95;3.53;;;;;;;;;;5083549;28;20528;-49
2023/08/15 13:50:10;;;;;;;3.80;2.80;;;;;;;;;;5086817;28;20298;-48
2023/08/15 13:52:37;;;;;;;5.45;3.00;;;;;;;;;;5088728;28;20172;-51
2023/08/15 13:55:06;;;;;;;4.53;3.30;;;;;;;;;;5087235;28;20168;-48
2023/08/15 13:57:32;;;;;;;7.32;3.47;;;;;;;;;;5088827;28;20230;-47
2023/08/15 13:59:58;;;;;;;4.63;3.08;;;;;;;;;;5089465;28;20301;-51
2023/08/15 14:02:24;;;;;;;5.32;2.97;;;;;;;;;;5066069;28;20251;-52
2023/08/15 14:04:50;;;;;;;6.25;3.17;;;;;;;;;;5070252;28;20200;-47
2023/08/15 14:07:16;;;;;;;4.75;2.70;;;;;;;;;;5076695;28;20181;-48
2023/08/15 14:09:42;;;;;;;4.00;3.00;;;;;;;;;;5076327;28;20172;-47
2023/08/15 14:12:08;;;;;;;5.50;2.97;;;;;;;;;;5075807;28;20169;-47
2023/08/15 14:14:36;;;;;;;5.50;3.30;;;;;;;;;;5074021;28;20176;-47
2023/08/15 14:17:02;;;;;;;5.30;3.05;;;;;;;;;;5072590;28;20176;-47
2023/08/15 14:19:29;;;;;;;6.22;3.22;;;;;;;;;;5069478;28;20580;-49
2023/08/15 14:21:54;;;;;;;5.20;2.83;;;;;;;;;;5071244;28;20414;-51
2023/08/15 14:24:21;;;;;;;3.75;2.78;;;;;;;;;;5069694;28;20649;-48
2023/08/15 14:26:47;;;;;;;6.47;3.05;;;;;;;;;;5067912;28;20211;-52
2023/08/15 14:29:13;;;;;;;3.47;2.25;;;;;;;;;;5067840;28;20260;-52
2023/08/15 14:31:39;;;;;;;4.30;2.35;;;;;;;;;;5066496;28;20688;-48
2023/08/15 14:34:05;;;;;;;4.80;2.25;;;;;;;;;;5066585;28;20164;-49
2023/08/15 14:36:31;;;;;;;5.95;2.20;;;;;;;;;;5067316;28;20234;-48
2023/08/15 14:38:57;;;;;;;7.05;2.38;;;;;;;;;;5065681;28;20287;-49
2023/08/15 14:41:23;;;;;;;4.78;2.20;;;;;;;;;;5067189;28;20264;-51
2023/08/15 14:43:49;;;;;;;3.22;2.00;;;;;;;;;;5064624;28;20548;-50